Time;durP1;ratioP1;P1;durP2;ratioP2;P2;SDS_P1;SDS_P2;PMS_P1;PMS_P2;Temp;Humidity;BMP_temperature;BMP_pressure;BME280_temperature;BME280_humidity;BME280_pressure;Samples;Min_cycle;Max_cycle;Signal;HPM_P1;HPM_P2
2023/09/16 00:01:33;;;;;;;9.43;7.97;;;;;;;;;;5032023;28;20030;-67
2023/09/16 00:03:59;;;;;;;10.75;8.07;;;;;;;;;;5031868;28;20017;-67
2023/09/16 00:06:25;;;;;;;11.10;8.00;;;;;;;;;;5032039;28;20029;-67
2023/09/16 00:08:51;;;;;;;9.85;8.18;;;;;;;;;;5031815;28;20468;-67
2023/09/16 00:11:17;;;;;;;10.23;8.60;;;;;;;;;;5032031;28;20027;-67
2023/09/16 00:13:43;;;;;;;10.50;7.95;;;;;;;;;;5031631;28;20069;-67
2023/09/16 00:16:12;;;;;;;10.05;7.93;;;;;;;;;;5017794;28;20084;-67
2023/09/16 00:18:38;;;;;;;10.40;7.90;;;;;;;;;;5031887;28;20017;-67
2023/09/16 00:21:04;;;;;;;11.25;7.80;;;;;;;;;;5013986;28;20021;-67
2023/09/16 00:23:31;;;;;;;9.52;8.48;;;;;;;;;;5033772;28;20032;-66
2023/09/16 00:25:57;;;;;;;8.95;7.65;;;;;;;;;;5035746;28;20040;-66
2023/09/16 00:28:25;;;;;;;9.50;8.50;;;;;;;;;;5036117;28;20021;-67
2023/09/16 00:30:51;;;;;;;9.07;7.65;;;;;;;;;;5035689;28;20026;-67
2023/09/16 00:33:17;;;;;;;8.88;8.00;;;;;;;;;;5035655;28;20024;-67
2023/09/16 00:35:43;;;;;;;9.80;8.80;;;;;;;;;;5035505;28;20391;-66
2023/09/16 00:38:09;;;;;;;8.90;8.00;;;;;;;;;;5035484;28;20427;-66
2023/09/16 00:40:36;;;;;;;10.02;7.78;;;;;;;;;;5035600;28;20033;-66
2023/09/16 00:43:02;;;;;;;9.73;7.68;;;;;;;;;;5035387;28;20045;-66
2023/09/16 00:45:28;;;;;;;10.32;7.80;;;;;;;;;;5035396;28;20037;-66
2023/09/16 00:47:55;;;;;;;7.57;6.88;;;;;;;;;;5035307;28;20026;-66
2023/09/16 00:50:21;;;;;;;8.38;7.60;;;;;;;;;;5035442;28;20068;-66
2023/09/16 00:52:50;;;;;;;8.27;7.47;;;;;;;;;;5035528;28;20025;-66
2023/09/16 00:55:16;;;;;;;10.15;7.63;;;;;;;;;;5035029;28;20030;-66
2023/09/16 00:57:46;;;;;;;9.18;8.27;;;;;;;;;;5035433;28;20095;-66
2023/09/16 01:00:12;;;;;;;7.60;6.90;;;;;;;;;;5034973;28;20440;-66
2023/09/16 01:02:38;;;;;;;8.50;7.18;;;;;;;;;;5017227;28;20482;-66
2023/09/16 01:05:14;;;;;;;9.10;6.85;;;;;;;;;;5034987;28;20037;-66
2023/09/16 01:07:41;;;;;;;8.70;7.63;;;;;;;;;;5030693;28;20025;-66
2023/09/16 01:10:07;;;;;;;7.38;6.60;;;;;;;;;;5032506;28;20435;-66
2023/09/16 01:12:33;;;;;;;9.02;7.28;;;;;;;;;;5033893;28;20360;-67
2023/09/16 01:14:59;;;;;;;8.38;7.45;;;;;;;;;;5033571;28;20130;-66
2023/09/16 01:17:32;;;;;;;8.60;7.40;;;;;;;;;;5034026;28;20041;-66
2023/09/16 01:20:10;;;;;;;9.82;8.32;;;;;;;;;;5029882;28;20368;-66
2023/09/16 01:22:39;;;;;;;8.35;7.40;;;;;;;;;;5034048;28;20052;-66
2023/09/16 01:25:06;;;;;;;10.13;7.38;;;;;;;;;;5034577;28;20414;-66
2023/09/16 01:27:32;;;;;;;8.32;7.53;;;;;;;;;;5034615;28;20136;-66
2023/09/16 01:29:59;;;;;;;8.75;7.95;;;;;;;;;;5034111;28;20104;-66
2023/09/16 01:32:28;;;;;;;8.88;6.70;;;;;;;;;;5003841;28;20440;-67
2023/09/16 01:34:54;;;;;;;12.90;7.45;;;;;;;;;;5013467;28;20432;-66
2023/09/16 01:37:23;;;;;;;7.75;6.90;;;;;;;;;;5030097;28;20026;-66
2023/09/16 01:39:59;;;;;;;10.77;8.02;;;;;;;;;;5033743;28;20029;-66
2023/09/16 01:42:27;;;;;;;10.50;7.95;;;;;;;;;;5033735;28;20115;-66
2023/09/16 01:44:54;;;;;;;7.32;6.72;;;;;;;;;;5033486;28;20506;-66
2023/09/16 01:47:20;;;;;;;7.88;7.07;;;;;;;;;;5033488;28;20026;-66
2023/09/16 01:49:46;;;;;;;9.98;8.02;;;;;;;;;;5015213;28;20112;-66
2023/09/16 01:52:12;;;;;;;9.30;7.13;;;;;;;;;;5033589;28;20045;-66
2023/09/16 01:54:38;;;;;;;7.47;6.78;;;;;;;;;;5033643;28;20060;-66
2023/09/16 01:57:04;;;;;;;9.43;7.50;;;;;;;;;;5033350;28;20490;-66
2023/09/16 01:59:30;;;;;;;9.23;7.55;;;;;;;;;;5033449;28;20093;-66
2023/09/16 02:01:56;;;;;;;8.73;7.68;;;;;;;;;;5034123;28;20061;-66
2023/09/16 02:04:22;;;;;;;7.75;6.95;;;;;;;;;;5032162;28;20018;-68
2023/09/16 02:06:48;;;;;;;7.55;6.88;;;;;;;;;;5030534;28;20029;-66
2023/09/16 02:09:14;;;;;;;10.18;6.68;;;;;;;;;;5034311;28;20044;-66
2023/09/16 02:11:40;;;;;;;7.63;6.93;;;;;;;;;;5033976;28;20494;-66
2023/09/16 02:14:10;;;;;;;9.82;7.68;;;;;;;;;;5033994;28;20079;-66
2023/09/16 02:16:37;;;;;;;9.88;7.55;;;;;;;;;;5033679;28;20056;-66
2023/09/16 02:19:03;;;;;;;9.07;6.63;;;;;;;;;;5033738;28;20030;-66
2023/09/16 02:21:29;;;;;;;12.80;7.03;;;;;;;;;;5033780;28;20028;-66
2023/09/16 02:23:55;;;;;;;8.00;7.07;;;;;;;;;;5033494;28;20029;-66
2023/09/16 02:26:21;;;;;;;7.63;6.93;;;;;;;;;;5033737;28;20362;-66
2023/09/16 02:28:47;;;;;;;7.45;6.45;;;;;;;;;;5033621;28;20022;-66
2023/09/16 02:31:15;;;;;;;7.65;6.90;;;;;;;;;;5015631;28;20360;-66
2023/09/16 02:33:41;;;;;;;10.10;7.63;;;;;;;;;;5033538;28;20026;-67
2023/09/16 02:36:07;;;;;;;9.60;7.03;;;;;;;;;;5033241;28;20570;-67
2023/09/16 02:38:34;;;;;;;8.52;7.72;;;;;;;;;;5033330;28;20025;-66
2023/09/16 02:41:06;;;;;;;10.15;7.35;;;;;;;;;;5033094;28;20025;-66
2023/09/16 02:43:32;;;;;;;8.35;6.93;;;;;;;;;;5033184;28;20030;-66
2023/09/16 02:45:58;;;;;;;8.05;7.22;;;;;;;;;;5032353;28;20033;-66
2023/09/16 02:48:24;;;;;;;13.15;8.35;;;;;;;;;;5015276;28;20379;-66
2023/09/16 02:50:50;;;;;;;8.75;7.47;;;;;;;;;;5033239;28;20475;-67
2023/09/16 02:53:17;;;;;;;7.72;6.93;;;;;;;;;;5033026;28;20022;-66
2023/09/16 02:55:43;;;;;;;7.93;7.22;;;;;;;;;;5033061;28;20036;-66
2023/09/16 02:58:09;;;;;;;8.30;7.50;;;;;;;;;;5032903;28;20045;-66
2023/09/16 03:00:35;;;;;;;10.07;7.57;;;;;;;;;;5033100;28;20022;-66
2023/09/16 03:03:02;;;;;;;9.68;7.72;;;;;;;;;;5015008;28;20501;-66
2023/09/16 03:05:29;;;;;;;8.30;7.35;;;;;;;;;;5032914;28;20026;-66
2023/09/16 03:07:55;;;;;;;9.68;8.23;;;;;;;;;;5032925;28;20487;-66
2023/09/16 03:10:21;;;;;;;8.90;7.82;;;;;;;;;;5032695;28;20454;-66
2023/09/16 03:12:47;;;;;;;8.85;8.00;;;;;;;;;;5032550;28;20021;-66
2023/09/16 03:15:13;;;;;;;7.97;7.10;;;;;;;;;;5032506;28;20053;-67
2023/09/16 03:17:39;;;;;;;10.52;7.70;;;;;;;;;;5032359;28;20053;-66
2023/09/16 03:20:06;;;;;;;12.32;8.38;;;;;;;;;;5014705;28;20033;-66
2023/09/16 03:22:32;;;;;;;8.85;8.02;;;;;;;;;;5032473;28;20027;-67
2023/09/16 03:24:58;;;;;;;9.23;8.32;;;;;;;;;;5032545;28;20417;-66
2023/09/16 03:27:23;;;;;;;8.77;7.90;;;;;;;;;;5032471;28;20022;-67
2023/09/16 03:29:50;;;;;;;11.75;8.52;;;;;;;;;;5032462;28;20448;-66
2023/09/16 03:32:15;;;;;;;10.73;9.00;;;;;;;;;;5032375;28;20025;-66
2023/09/16 03:34:41;;;;;;;10.23;8.82;;;;;;;;;;5032635;28;20030;-66
2023/09/16 03:37:07;;;;;;;8.70;7.80;;;;;;;;;;5032205;28;20127;-66
2023/09/16 03:39:33;;;;;;;11.20;8.40;;;;;;;;;;5032320;28;20021;-66
2023/09/16 03:41:59;;;;;;;11.00;9.13;;;;;;;;;;5032158;28;20416;-66
2023/09/16 03:44:25;;;;;;;10.32;9.32;;;;;;;;;;5031976;28;20030;-66
2023/09/16 03:46:51;;;;;;;10.60;8.73;;;;;;;;;;5032403;28;20057;-66
2023/09/16 03:49:17;;;;;;;10.27;9.23;;;;;;;;;;5032112;28;20030;-66
2023/09/16 03:51:43;;;;;;;13.48;9.63;;;;;;;;;;5032130;28;20037;-66
2023/09/16 03:54:11;;;;;;;10.15;8.95;;;;;;;;;;5031981;28;20103;-66
2023/09/16 03:56:37;;;;;;;12.98;9.68;;;;;;;;;;5031744;28;20025;-66
2023/09/16 03:59:03;;;;;;;11.55;10.00;;;;;;;;;;5032286;28;20026;-66
2023/09/16 04:01:29;;;;;;;10.48;9.25;;;;;;;;;;5032124;28;20039;-66
2023/09/16 04:03:55;;;;;;;13.95;10.45;;;;;;;;;;5032120;28;20112;-66
2023/09/16 04:06:21;;;;;;;11.90;10.63;;;;;;;;;;5014131;28;20088;-66
2023/09/16 04:08:47;;;;;;;13.55;10.05;;;;;;;;;;5031854;28;20028;-66
2023/09/16 04:11:13;;;;;;;12.00;10.80;;;;;;;;;;5031772;28;20053;-66
2023/09/16 04:13:39;;;;;;;11.40;10.13;;;;;;;;;;5013954;28;20411;-66
2023/09/16 04:16:05;;;;;;;11.90;10.63;;;;;;;;;;5031852;28;20112;-66
2023/09/16 04:18:32;;;;;;;13.77;12.23;;;;;;;;;;5031654;28;20101;-66
2023/09/16 04:20:58;;;;;;;13.48;12.00;;;;;;;;;;5031819;28;20032;-67
2023/09/16 04:23:24;;;;;;;12.48;10.55;;;;;;;;;;5032069;28;20048;-67
2023/09/16 04:26:03;;;;;;;12.73;10.98;;;;;;;;;;5031592;28;20143;-67
2023/09/16 04:28:29;;;;;;;14.10;11.95;;;;;;;;;;5024737;28;20091;-67
2023/09/16 04:30:56;;;;;;;14.43;12.80;;;;;;;;;;5013780;28;20021;-67
2023/09/16 04:33:22;;;;;;;15.95;12.80;;;;;;;;;;5032005;28;20391;-67
2023/09/16 04:35:49;;;;;;;15.05;13.55;;;;;;;;;;5028860;28;20336;-66
2023/09/16 04:38:16;;;;;;;15.73;13.10;;;;;;;;;;5031488;28;20551;-67
2023/09/16 04:40:43;;;;;;;16.55;13.38;;;;;;;;;;5032057;28;20392;-67
2023/09/16 04:43:09;;;;;;;15.70;13.70;;;;;;;;;;5031421;28;20034;-67
2023/09/16 04:45:35;;;;;;;17.25;12.85;;;;;;;;;;5031617;28;20036;-67
2023/09/16 04:48:01;;;;;;;15.55;12.95;;;;;;;;;;5031529;28;20243;-67
2023/09/16 04:50:31;;;;;;;16.13;12.32;;;;;;;;;;5031485;28;20025;-67
2023/09/16 04:52:58;;;;;;;12.85;11.55;;;;;;;;;;5031409;28;20104;-67
2023/09/16 04:55:25;;;;;;;15.27;11.25;;;;;;;;;;5031452;28;20494;-67
2023/09/16 04:57:51;;;;;;;14.07;12.18;;;;;;;;;;5031169;28;20025;-66
2023/09/16 05:00:17;;;;;;;14.48;12.27;;;;;;;;;;5026013;28;20026;-67
2023/09/16 05:03:05;;;;;;;13.10;11.50;;;;;;;;;;5026548;28;20121;-67
2023/09/16 05:05:31;;;;;;;14.40;11.52;;;;;;;;;;5029772;28;20030;-67
2023/09/16 05:07:57;;;;;;;14.95;11.40;;;;;;;;;;5029727;28;20053;-67
2023/09/16 05:10:23;;;;;;;12.80;11.57;;;;;;;;;;5034162;28;20064;-67
2023/09/16 05:12:49;;;;;;;12.07;10.85;;;;;;;;;;5034936;28;20025;-66
2023/09/16 05:18:18;;;;;;;10.93;9.70;;;;;;;;;;5030852;28;20041;-66
2023/09/16 05:20:44;;;;;;;11.25;10.10;;;;;;;;;;5016866;28;20487;-67
2023/09/16 05:23:13;;;;;;;12.35;11.05;;;;;;;;;;5017018;28;20328;-67
2023/09/16 05:25:48;;;;;;;10.32;9.25;;;;;;;;;;5034755;28;20115;-67
2023/09/16 05:28:15;;;;;;;13.27;11.00;;;;;;;;;;5021223;28;20041;-67
2023/09/16 05:30:42;;;;;;;13.77;10.52;;;;;;;;;;5034839;28;20498;-67
2023/09/16 05:33:10;;;;;;;11.75;10.50;;;;;;;;;;5034052;28;20022;-66
2023/09/16 05:35:36;;;;;;;13.55;10.43;;;;;;;;;;5034544;28;20040;-66
2023/09/16 05:38:02;;;;;;;13.27;11.38;;;;;;;;;;5024321;28;20028;-66
2023/09/16 05:40:28;;;;;;;14.50;11.65;;;;;;;;;;5016765;28;20037;-66
2023/09/16 05:42:54;;;;;;;14.43;11.30;;;;;;;;;;5034116;28;20030;-68
2023/09/16 05:45:20;;;;;;;13.73;12.32;;;;;;;;;;5034391;28;20502;-66
2023/09/16 05:47:48;;;;;;;16.52;12.70;;;;;;;;;;5034457;28;20033;-67
2023/09/16 05:50:14;;;;;;;14.63;12.35;;;;;;;;;;5034246;28;20014;-66
2023/09/16 05:52:40;;;;;;;14.02;12.10;;;;;;;;;;5034569;28;20063;-67
2023/09/16 05:55:06;;;;;;;12.75;11.60;;;;;;;;;;5034074;28;20053;-67
2023/09/16 05:57:32;;;;;;;13.13;10.68;;;;;;;;;;5034267;28;20403;-66
2023/09/16 05:59:58;;;;;;;16.42;12.27;;;;;;;;;;5034011;28;20017;-67
2023/09/16 06:02:24;;;;;;;13.57;11.52;;;;;;;;;;5034372;28;20032;-66
2023/09/16 06:04:50;;;;;;;12.00;10.77;;;;;;;;;;5033943;28;20025;-66
2023/09/16 06:07:17;;;;;;;14.23;12.23;;;;;;;;;;5033430;28;20028;-67
2023/09/16 06:09:43;;;;;;;13.15;11.77;;;;;;;;;;5016218;28;20029;-67
2023/09/16 06:12:09;;;;;;;13.50;11.50;;;;;;;;;;5033727;28;20026;-66
2023/09/16 06:14:35;;;;;;;13.38;11.82;;;;;;;;;;5034064;28;20353;-67
2023/09/16 06:17:01;;;;;;;15.35;11.60;;;;;;;;;;5033497;28;20107;-66
2023/09/16 06:19:28;;;;;;;12.55;10.48;;;;;;;;;;5033595;28;20037;-66
2023/09/16 06:21:54;;;;;;;11.55;10.18;;;;;;;;;;5033724;28;20104;-66
2023/09/16 06:24:20;;;;;;;12.65;10.05;;;;;;;;;;5015853;28;20017;-67
2023/09/16 06:26:46;;;;;;;12.82;11.20;;;;;;;;;;5033505;28;20136;-67
2023/09/16 06:29:12;;;;;;;13.52;10.30;;;;;;;;;;5033529;28;20140;-67
2023/09/16 06:31:38;;;;;;;12.90;10.82;;;;;;;;;;5033639;28;20108;-67
2023/09/16 06:34:05;;;;;;;10.82;9.70;;;;;;;;;;5033501;28;20131;-67
2023/09/16 06:36:31;;;;;;;11.73;10.52;;;;;;;;;;5033266;28;20511;-67
2023/09/16 06:38:58;;;;;;;12.85;10.20;;;;;;;;;;5033484;28;20021;-66
2023/09/16 06:41:24;;;;;;;16.63;11.63;;;;;;;;;;5033242;28;20076;-66
2023/09/16 06:43:50;;;;;;;12.77;11.10;;;;;;;;;;5033212;28;20030;-66
2023/09/16 06:46:17;;;;;;;17.77;11.35;;;;;;;;;;5033410;28;20025;-67
2023/09/16 06:48:45;;;;;;;14.27;11.98;;;;;;;;;;5033190;28;20101;-67
2023/09/16 06:51:11;;;;;;;15.48;13.18;;;;;;;;;;5033121;28;20028;-67
2023/09/16 06:53:37;;;;;;;14.88;12.25;;;;;;;;;;5033123;28;20056;-67
2023/09/16 06:56:03;;;;;;;13.65;12.20;;;;;;;;;;5033095;28;20069;-67
2023/09/16 06:58:29;;;;;;;13.50;12.10;;;;;;;;;;5032963;28;20075;-67
2023/09/16 07:00:55;;;;;;;16.70;12.15;;;;;;;;;;5032817;28;20033;-67
2023/09/16 07:03:21;;;;;;;13.45;11.82;;;;;;;;;;5032965;28;20032;-67
2023/09/16 07:05:50;;;;;;;14.02;11.57;;;;;;;;;;5031313;28;20069;-67
2023/09/16 07:08:17;;;;;;;13.57;12.20;;;;;;;;;;5029997;28;20447;-68
2023/09/16 07:10:43;;;;;;;14.23;11.63;;;;;;;;;;5033286;28;20025;-67
2023/09/16 07:13:09;;;;;;;13.25;11.73;;;;;;;;;;5032834;28;20013;-67
2023/09/16 07:15:35;;;;;;;15.52;12.70;;;;;;;;;;5032521;28;20044;-67
2023/09/16 07:18:02;;;;;;;12.18;10.98;;;;;;;;;;5032398;28;20025;-67
2023/09/16 07:20:28;;;;;;;12.05;10.80;;;;;;;;;;5032539;28;20026;-67
2023/09/16 07:22:56;;;;;;;13.05;11.63;;;;;;;;;;5032611;28;20040;-67
2023/09/16 07:25:22;;;;;;;13.52;10.85;;;;;;;;;;5032624;28;20021;-67
2023/09/16 07:27:48;;;;;;;13.77;12.45;;;;;;;;;;5032724;28;20025;-67
2023/09/16 07:30:16;;;;;;;12.65;11.35;;;;;;;;;;5032305;28;20045;-67
2023/09/16 07:32:42;;;;;;;13.35;11.57;;;;;;;;;;5031932;28;20083;-67
2023/09/16 07:35:08;;;;;;;14.52;11.70;;;;;;;;;;5032680;28;20021;-67
2023/09/16 07:37:35;;;;;;;13.63;10.70;;;;;;;;;;5032135;28;20386;-67
2023/09/16 07:40:01;;;;;;;12.65;11.05;;;;;;;;;;5032227;28;20432;-68
2023/09/16 07:42:27;;;;;;;13.45;12.10;;;;;;;;;;5032230;28;20021;-67
2023/09/16 07:44:53;;;;;;;11.68;10.00;;;;;;;;;;5032032;28;20041;-67
2023/09/16 07:47:19;;;;;;;12.48;11.25;;;;;;;;;;5032147;28;20025;-67
2023/09/16 07:49:44;;;;;;;12.63;11.15;;;;;;;;;;5032181;28;20021;-67
2023/09/16 07:52:10;;;;;;;13.60;11.35;;;;;;;;;;5032320;28;20027;-67
2023/09/16 07:54:36;;;;;;;12.90;11.10;;;;;;;;;;5032183;28;20028;-67
2023/09/16 07:57:02;;;;;;;12.95;11.75;;;;;;;;;;5014120;28;20076;-67
2023/09/16 07:59:29;;;;;;;15.20;11.70;;;;;;;;;;5032261;28;20022;-67
2023/09/16 08:01:55;;;;;;;13.48;11.95;;;;;;;;;;5032064;28;20032;-67
2023/09/16 08:04:21;;;;;;;14.75;11.70;;;;;;;;;;5032084;28;20024;-67
2023/09/16 08:06:49;;;;;;;13.50;12.18;;;;;;;;;;5032019;28;20096;-67
2023/09/16 08:09:16;;;;;;;12.00;10.88;;;;;;;;;;5026433;28;20422;-67
2023/09/16 08:11:42;;;;;;;17.17;12.27;;;;;;;;;;5014173;28;20076;-66
2023/09/16 08:14:09;;;;;;;14.88;12.55;;;;;;;;;;5013982;28;20456;-67
2023/09/16 08:16:35;;;;;;;16.42;11.32;;;;;;;;;;5031551;28;20032;-67
2023/09/16 08:19:01;;;;;;;14.82;13.15;;;;;;;;;;5031580;28;20045;-67
2023/09/16 08:21:27;;;;;;;14.68;11.55;;;;;;;;;;5031667;28;20431;-67
2023/09/16 08:23:53;;;;;;;13.45;12.05;;;;;;;;;;5031991;28;20021;-67
2023/09/16 08:26:19;;;;;;;14.77;12.48;;;;;;;;;;5031602;28;20025;-67
2023/09/16 08:28:45;;;;;;;15.98;12.43;;;;;;;;;;5031684;28;20037;-67
2023/09/16 08:31:11;;;;;;;16.10;13.57;;;;;;;;;;5019870;28;20105;-66
2023/09/16 08:33:37;;;;;;;15.73;12.95;;;;;;;;;;5023960;28;20032;-67
2023/09/16 08:36:03;;;;;;;14.55;12.98;;;;;;;;;;5031421;28;20036;-67
2023/09/16 08:38:29;;;;;;;14.43;12.93;;;;;;;;;;5031784;28;20099;-67
2023/09/16 08:41:21;;;;;;;14.45;13.07;;;;;;;;;;5019768;28;20492;-67
2023/09/16 08:43:48;;;;;;;15.18;13.32;;;;;;;;;;5029491;28;20049;-63
2023/09/16 08:46:20;;;;;;;15.63;13.95;;;;;;;;;;5035311;28;20045;-63
2023/09/16 08:48:47;;;;;;;17.02;14.88;;;;;;;;;;5035603;28;20013;-63
2023/09/16 08:51:15;;;;;;;14.88;13.38;;;;;;;;;;5035252;28;20078;-64
2023/09/16 08:53:43;;;;;;;15.30;13.75;;;;;;;;;;5035513;28;20014;-63
2023/09/16 08:56:09;;;;;;;16.25;14.55;;;;;;;;;;5034411;28;20097;-62
2023/09/16 08:58:35;;;;;;;16.30;14.20;;;;;;;;;;5032064;28;20087;-63
2023/09/16 09:01:02;;;;;;;15.63;13.07;;;;;;;;;;5029994;28;20025;-63
2023/09/16 09:03:30;;;;;;;15.63;13.65;;;;;;;;;;5031960;28;20023;-63
2023/09/16 09:05:55;;;;;;;17.60;14.68;;;25.30;1.00;;;;;;5031862;28;20026;-63
2023/09/16 09:08:21;;;;;;;15.68;14.10;;;;;;;;;;5034134;28;20137;-63
2023/09/16 09:10:48;;;;;;;17.92;12.85;;;;;;;;;;5035096;28;20026;-63
2023/09/16 09:13:14;;;;;;;18.15;13.40;;;;;;;;;;5034922;28;20021;-62
2023/09/16 09:15:41;;;;;;;14.30;12.80;;;;;;;;;;5024023;28;20104;-64
2023/09/16 09:18:10;;;;;;;15.57;13.20;;;;;;;;;;5027879;28;20025;-63
2023/09/16 09:20:36;;;;;;;15.13;13.45;;;;;;;;;;5035271;28;20478;-64
2023/09/16 09:23:02;;;;;;;16.58;14.98;;;;;;;;;;5035014;28;20056;-64
2023/09/16 09:25:31;;;;;;;15.27;13.25;;;;;;;;;;5034919;28;20455;-64
2023/09/16 09:27:57;;;;;;;17.27;15.05;;;;;;;;;;5035001;28;20103;-64
2023/09/16 09:30:24;;;;;;;18.05;15.30;;;;;;;;;;5029748;28;20434;-64
2023/09/16 09:32:50;;;;;;;18.00;14.25;;;;;;;;;;5034084;28;20028;-64
2023/09/16 09:35:16;;;;;;;16.00;13.73;;;;;;;;;;5034335;28;20033;-64
2023/09/16 09:37:42;;;;;;;16.00;14.30;;;;;;;;;;5030741;28;20426;-64
2023/09/16 09:40:15;;;;;;;17.00;14.60;;;;;;;;;;5034343;28;20395;-64
2023/09/16 09:42:47;;;;;;;16.20;14.32;;;;;;;;;;5034759;28;20190;-63
2023/09/16 09:45:14;;;;;;;16.42;13.50;;;;;;;;;;5034599;28;20494;-63
2023/09/16 09:47:41;;;;;;;15.02;13.52;;;;;;;;;;5034389;28;20018;-63
2023/09/16 09:50:11;;;;;;;16.45;13.68;;;;;;;;;;5034591;28;20527;-63
2023/09/16 09:52:37;;;;;;;15.80;13.93;;;;;;;;;;5034406;28;20057;-63
2023/09/16 09:55:03;;;;;;;16.27;13.35;;;;;;;;;;5033994;28;20017;-63
2023/09/16 09:57:29;;;;;;;13.82;12.35;;;;;;;;;;5034226;28;20041;-63
2023/09/16 09:59:56;;;;;;;18.85;14.60;;;;;;;;;;5034094;28;20032;-63
2023/09/16 10:02:26;;;;;;;14.20;12.68;;;;;;;;;;5034312;28;20537;-63
2023/09/16 10:05:02;;;;;;;15.45;13.88;;;;;;;;;;5034363;28;20116;-63
2023/09/16 10:07:31;;;;;;;15.23;13.43;;;;;;;;;;5034227;28;20030;-63
2023/09/16 10:09:57;;;;;;;10.95;9.95;;;;;;;;;;5034208;28;20116;-63
2023/09/16 10:12:23;;;;;;;11.77;9.93;;;;;;;;;;5034163;28;20021;-63
2023/09/16 10:14:51;;;;;;;11.10;10.00;;;;;;;;;;5033935;28;20025;-63
2023/09/16 10:17:17;;;;;;;12.95;11.60;;;;;;;;;;5033847;28;20076;-59
2023/09/16 10:19:44;;;;;;;12.38;11.13;;;;;;;;;;5033816;28;20045;-67
2023/09/16 10:22:11;;;;;;;11.90;10.60;;;;;;;;;;5034199;28;20099;-67
2023/09/16 10:24:37;;;;;;;11.52;10.35;;;;;;;;;;5033911;28;20112;-67
2023/09/16 10:27:06;;;;;;;12.93;11.73;;;;;;;;;;5033796;28;20542;-67
2023/09/16 10:29:33;;;;;;;13.50;12.15;;;;;;;;;;5034051;28;20036;-67
2023/09/16 10:31:59;;;;;;;13.05;11.85;;;;;;;;;;5033962;28;20180;-67
2023/09/16 10:34:25;;;;;;;12.90;11.50;;;;;;;;;;5033930;28;20041;-67
2023/09/16 10:36:52;;;;;;;13.15;11.85;;;;;;;;;;5033457;28;20034;-67
2023/09/16 10:39:19;;;;;;;13.55;11.57;;;;;;;;;;5033850;28;20067;-67
2023/09/16 10:41:46;;;;;;;17.13;13.40;;;;;;;;;;5033456;28;20021;-67
2023/09/16 10:44:12;;;;;;;14.25;12.80;;;;;;;;;;5033816;28;20078;-67
2023/09/16 10:46:38;;;;;;;13.50;12.20;;;24.00;99.90;;;;;;5033633;28;20025;-67
2023/09/16 10:49:04;;;;;;;14.32;12.80;;;25.50;99.90;;;;;;5033708;28;20506;-67
2023/09/16 10:51:42;;;;;;;16.33;13.60;;;25.40;99.90;;;;;;5033545;28;20017;-67
2023/09/16 10:54:47;;;;;;;15.30;13.73;;;25.40;99.90;;;;;;5033487;28;20068;-67
2023/09/16 10:57:36;;;;;;;13.30;11.98;;;25.30;99.90;;;;;;5030207;28;20052;-67
2023/09/16 11:00:03;;;;;;;15.25;12.93;;;25.30;99.90;;;;;;5027478;28;20483;-66
2023/09/16 11:02:42;;;;;;;13.82;12.43;;;25.50;99.90;;;;;;5033229;28;20104;-66
2023/09/16 11:05:08;;;;;;;11.75;10.63;;;;;;;;;;5033267;28;20360;-67
2023/09/16 11:07:36;;;;;;;10.30;9.30;;;;;;;;;;5032164;28;20075;-67
2023/09/16 11:10:03;;;;;;;11.20;10.10;;;;;;;;;;5033058;28;20562;-66
2023/09/16 11:12:31;;;;;;;10.90;9.80;;;;;;;;;;5033084;28;20052;-66
2023/09/16 11:14:57;;;;;;;11.27;9.88;;;;;;;;;;5032951;28;20052;-67
2023/09/16 11:17:24;;;;;;;11.13;10.15;;;;;;;;;;5033011;28;20356;-66
2023/09/16 11:19:50;;;;;;;11.95;10.85;;;;;;;;;;5032685;28;20045;-66
2023/09/16 11:22:17;;;;;;;14.10;12.70;;;;;;;;;;5032817;28;20052;-66
2023/09/16 11:24:43;;;;;;;12.48;11.20;;;;;;;;;;5032867;28;20021;-66
2023/09/16 11:27:09;;;;;;;10.73;9.57;;;;;;;;;;5032773;28;20030;-66
2023/09/16 11:29:36;;;;;;;10.82;9.82;;;;;;;;;;5032646;28;20383;-66
2023/09/16 11:32:03;;;;;;;13.23;11.23;;;;;;;;;;5032664;28;20041;-66
2023/09/16 11:34:29;;;;;;;11.45;10.32;;;;;;;;;;5032558;28;20151;-66
2023/09/16 11:36:58;;;;;;;13.70;12.30;;;;;;;;;;5032746;28;20033;-66
2023/09/16 11:39:33;;;;;;;11.10;9.98;;;;;;;;;;5032569;28;20090;-66
2023/09/16 11:41:59;;;;;;;13.07;11.77;;;;;;;;;;5032465;28;20025;-66
2023/09/16 11:44:27;;;;;;;12.55;11.23;;;;;;;;;;5032484;28;20032;-67
2023/09/16 11:46:54;;;;;;;12.98;11.55;;;;;;;;;;5032437;28;20024;-67
2023/09/16 11:49:21;;;;;;;11.80;10.70;;;;;;;;;;5032356;28;20024;-66
2023/09/16 11:51:51;;;;;;;15.73;13.88;;;;;;;;;;5032349;28;20455;-66
2023/09/16 11:54:17;;;;;;;12.80;11.65;;;;;;;;;;5032325;28;20091;-66
2023/09/16 11:56:44;;;;;;;13.85;12.23;;;;;;;;;;5032295;28;20140;-66
2023/09/16 11:59:11;;;;;;;12.35;11.15;;;;;;;;;;5032174;28;20021;-66
2023/09/16 12:01:40;;;;;;;12.35;10.23;;;;;;;;;;5032260;28;20021;-66
2023/09/16 12:04:07;;;;;;;13.65;12.25;;;;;;;;;;5028755;28;20025;-66
2023/09/16 12:06:34;;;;;;;13.48;12.25;;;;;;;;;;5031259;28;20486;-66
2023/09/16 12:09:01;;;;;;;13.43;12.13;;;;;;;;;;5032457;28;20024;-66
2023/09/16 12:11:27;;;;;;;13.55;12.25;;;;;;;;;;5032351;28;20029;-66
2023/09/16 12:13:54;;;;;;;11.50;10.40;;;;;;;;;;5032063;28;20026;-66
2023/09/16 12:16:21;;;;;;;10.75;9.77;;;;;;;;;;5032113;28;20044;-66
2023/09/16 12:18:47;;;;;;;14.70;12.52;;;;;;;;;;5036044;28;20144;-66
2023/09/16 12:21:13;;;;;;;10.90;9.90;;;;;;;;;;5038987;28;20108;-66
2023/09/16 12:23:41;;;;;;;12.27;10.27;;;;;;;;;;5038726;28;20436;-66
2023/09/16 12:26:10;;;;;;;12.35;11.18;;;;;;;;;;5038649;28;20485;-66
2023/09/16 12:28:37;;;;;;;11.35;10.35;;;;;;;;;;5038654;28;20109;-66
2023/09/16 12:31:03;;;;;;;11.40;10.20;;;;;;;;;;5038575;28;20462;-66
2023/09/16 12:33:43;;;;;;;10.43;9.10;;;;;;;;;;5038372;28;20053;-66
2023/09/16 12:36:09;;;;;;;11.93;10.85;;;;;;;;;;5038480;28;20475;-66
2023/09/16 12:38:36;;;;;;;12.07;10.88;;;;;;;;;;5038478;28;20028;-66
2023/09/16 12:41:02;;;;;;;12.68;11.48;;;;;;;;;;5038487;28;20076;-66
2023/09/16 12:43:30;;;;;;;10.70;9.52;;;;;;;;;;5038418;28;20041;-67
2023/09/16 12:45:56;;;;;;;11.80;10.68;;;;;;;;;;5037431;28;20044;-67
2023/09/16 12:48:23;;;;;;;12.68;11.60;;;;;;;;;;5035052;28;20021;-68
2023/09/16 12:50:49;;;;;;;12.27;10.57;;;;;;;;;;5019107;28;20495;-68
2023/09/16 12:53:15;;;;;;;12.88;10.63;;;;;;;;;;5035446;28;20565;-67
2023/09/16 12:55:41;;;;;;;12.20;11.13;;;;;;;;;;5037378;28;20480;-65
2023/09/16 12:58:07;;;;;;;10.27;9.35;;;;;;;;;;5038235;28;20021;-66
2023/09/16 13:00:34;;;;;;;10.65;9.73;;;;;;;;;;5038286;28;20017;-66
2023/09/16 13:03:00;;;;;;;9.95;8.93;;;;;;;;;;5038250;28;20029;-66
2023/09/16 13:05:28;;;;;;;11.35;10.38;;;;;;;;;;5038038;28;20104;-65
2023/09/16 13:08:01;;;;;;;11.02;10.13;;;;;;;;;;5038258;28;20083;-66
2023/09/16 13:10:28;;;;;;;10.63;9.73;;;;;;;;;;5038151;28;20052;-68
2023/09/16 13:12:54;;;;;;;13.75;12.55;;;;;;;;;;5038004;28;20025;-68
2023/09/16 13:15:24;;;;;;;12.32;11.30;;;;;;;;;;5038342;28;20054;-68
2023/09/16 13:17:59;;;;;;;11.35;10.27;;;;;;;;;;5037994;28;20034;-68
2023/09/16 13:20:26;;;;;;;12.20;10.95;;;;;;;;;;5038089;28;20456;-68
2023/09/16 13:22:56;;;;;;;10.45;9.55;;;;;;;;;;5037922;28;20441;-68
2023/09/16 13:25:41;;;;;;;11.63;10.52;;;;;;;;;;5038284;28;20101;-68
2023/09/16 13:28:14;;;;;;;11.02;10.00;;;;;;;;;;5038057;28;20029;-68
2023/09/16 13:30:41;;;;;;;11.13;10.15;;;;;;;;;;5034592;28;20017;-72
2023/09/16 13:33:08;;;;;;;11.20;10.07;;;;;;;;;;5034762;28;20035;-71
2023/09/16 13:35:34;;;;;;;10.43;9.32;;;;;;;;;;5034588;28;20034;-71
2023/09/16 13:38:01;;;;;;;11.98;10.85;;;;;;;;;;5034296;28;20064;-71
2023/09/16 13:40:27;;;;;;;11.43;9.52;;;;;;;;;;5034493;28;20029;-71
2023/09/16 13:42:53;;;;;;;12.15;10.90;;;;;;;;;;5034400;28;20025;-71
2023/09/16 13:45:19;;;;;;;10.23;9.43;;;;;;;;;;5034734;28;20040;-71
2023/09/16 13:48:04;;;;;;;10.73;9.60;;;;;;;;;;5034435;28;20022;-71
2023/09/16 13:50:30;;;;;;;11.15;9.98;;;;;;;;;;5022421;28;20021;-71
2023/09/16 13:52:56;;;;;;;10.10;9.13;;;;;;;;;;5034547;28;20329;-71
2023/09/16 13:55:22;;;;;;;12.07;10.40;;;;;;;;;;5034043;28;20053;-71
2023/09/16 13:57:48;;;;;;;9.25;8.13;;;;;;;;;;5034122;28;20536;-73
2023/09/16 14:00:16;;;;;;;9.77;8.77;;;;;;;;;;5034067;28;20033;-72
2023/09/16 14:02:42;;;;;;;11.38;10.38;;;;;;;;;;5033937;28;20032;-70
2023/09/16 14:05:08;;;;;;;11.48;9.00;;;;;;;;;;5034044;28;20017;-72
2023/09/16 14:07:34;;;;;;;10.43;9.52;;;;;;;;;;5016122;28;20044;-72
2023/09/16 14:10:00;;;;;;;9.43;8.52;;;;;;;;;;5034042;28;20472;-73
2023/09/16 14:12:26;;;;;;;11.85;10.38;;;;;;;;;;5033752;28;20022;-73
2023/09/16 14:14:52;;;;;;;11.05;9.77;;;;;;;;;;5033814;28;20029;-72
2023/09/16 14:17:18;;;;;;;12.02;10.60;;;;;;;;;;5034026;28;20132;-73
2023/09/16 14:19:44;;;;;;;10.18;9.18;;;;;;;;;;5033908;28;20061;-73
2023/09/16 14:22:10;;;;;;;10.80;9.85;;;;;;;;;;5033844;28;20728;-73
2023/09/16 14:24:36;;;;;;;9.57;8.75;;;;;;;;;;5033933;28;20021;-73